Terminal Aerodrome Forecast
Issued by NWS

Home | Current Version | Previous Version | Text Only | Print | Product List | Glossary On
Versions: 1 2 3 4 5 6 7 8 9 10 11 12 13 14 15 16 17
929
FTAK31 PAJN 251520 AAA
TAFAPG
TAF AMD
PAPG 251520Z 2515/2612 VRB04KT P6SM VCSH SCT025 BKN030 OVC050
      TEMPO 2515/2518 -SHRA SCT006 OVC022
     FM251800 VRB04KT P6SM VCSH SCT020 OVC050
     FM260000 05006KT P6SM VCSH OVC050
     FM260300 06005KT P6SM -RA SCT030 OVC050=

USA.gov is the U.S. government's official web portal to all federal, state and local government web resources and services.